Time;durP1;ratioP1;P1;durP2;ratioP2;P2;SDS_P1;SDS_P2;PMS_P1;PMS_P2;Temp;Humidity;BMP_temperature;BMP_pressure;BME280_temperature;BME280_humidity;BME280_pressure;Samples;Min_cycle;Max_cycle;Signal;HPM_P1;HPM_P2
2023/07/17 00:02:17;;;;;;;4.90;2.08;;;;;;;;;;5033770;28;20210;-31
2023/07/17 00:04:55;;;;;;;10.75;3.05;;;;;;;;;;5029918;28;20213;-28
2023/07/17 00:07:29;;;;;;;3.30;2.03;;;;;;;;;;5035215;28;20206;-33
2023/07/17 00:10:05;;;;;;;2.42;1.70;;;;;;;;;;5041082;28;20225;-29
2023/07/17 00:12:33;;;;;;;2.17;1.90;;;;;;;;;;5014721;28;20310;-32
2023/07/17 00:15:09;;;;;;;6.85;2.50;;;;;;;;;;5033757;28;20573;-31
2023/07/17 00:17:41;;;;;;;3.17;1.92;;;;;;;;;;5052473;28;20232;-32
2023/07/17 00:20:16;;;;;;;5.88;2.58;;;;;;;;;;5044345;28;20280;-34
2023/07/17 00:22:52;;;;;;;7.25;2.97;;;;;;;;;;5041447;28;20205;-30
2023/07/17 00:25:25;;;;;;;3.25;2.17;;;;;;;;;;5033772;28;20241;-32
2023/07/17 00:28:06;;;;;;;4.13;2.45;;;;;;;;;;5026341;28;20207;-34
2023/07/17 00:30:43;;;;;;;4.35;2.42;;;;;;;;;;5032619;28;20205;-31
2023/07/17 00:33:17;;;;;;;3.78;2.05;;;;;;;;;;5032445;28;20233;-31
2023/07/17 00:35:53;;;;;;;11.45;2.90;;;;;;;;;;5026737;28;20261;-32
2023/07/17 00:38:39;;;;;;;;;;;;;;;;;;;;;
2023/07/17 00:41:17;;;;;;;3.72;2.47;;;;;;;;;;5033377;28;20207;-33
2023/07/17 00:43:51;;;;;;;3.80;2.40;;;;;;;;;;5020344;28;20214;-33
2023/07/17 00:49:26;;;;;;;3.53;2.10;;;;;;;;;;5028490;28;20225;-33
2023/07/17 00:52:00;;;;;;;5.65;2.50;;;;;;;;;;5049067;28;20767;-34
2023/07/17 00:54:39;;;;;;;2.38;2.00;;;;;;;;;;5032637;28;20216;-35
2023/07/17 00:57:34;;;;;;;2.47;2.15;;;;;;;;;;5030117;28;20222;-32
2023/07/17 01:00:19;;;;;;;4.72;2.63;;;;;;;;;;5050504;28;20225;-29
2023/07/17 01:02:57;;;;;;;3.08;2.30;;;;;;;;;;5035458;28;20210;-31
2023/07/17 01:05:34;;;;;;;3.53;2.05;;;;;;;;;;5043273;28;20190;-32
2023/07/17 01:08:17;;;;;;;3.25;1.88;;;;;;;;;;5051192;28;20237;-32
2023/07/17 01:10:46;;;;;;;2.13;1.90;;;;;;;;;;5024373;28;20209;-29
2023/07/17 01:13:14;;;;;;;3.33;2.15;;;;;;;;;;5029271;28;20201;-31
2023/07/17 01:15:50;;;;;;;2.15;2.03;;;;;;;;;;5052991;28;20218;-33
2023/07/17 01:18:35;;;;;;;5.05;1.92;;;;;;;;;;5053437;28;20229;-32
2023/07/17 01:21:20;;;;;;;3.42;1.80;;;;;;;;;;5038874;28;20265;-31
2023/07/17 01:24:02;;;;;;;2.40;2.00;;;;;;;;;;5050870;28;20288;-33
2023/07/17 01:26:50;;;;;;;2.65;2.30;;;;;;;;;;5032379;28;20199;-35
2023/07/17 01:29:35;;;;;;;1.77;1.67;;;;;;;;;;5029129;28;20317;-32
2023/07/17 01:32:19;;;;;;;3.42;1.63;;;;;;;;;;5035973;28;20283;-32
2023/07/17 01:34:52;;;;;;;3.17;2.27;;;;;;;;;;5033114;28;20211;-32
2023/07/17 01:37:32;;;;;;;3.30;1.80;;;;;;;;;;5032312;28;20253;-31
2023/07/17 01:40:06;;;;;;;3.75;1.83;;;;;;;;;;5053277;28;20235;-33
2023/07/17 01:42:36;;;;;;;1.85;1.70;;;;;;;;;;5019848;28;20564;-32
2023/07/17 01:45:07;;;;;;;2.60;2.00;;;;;;;;;;5046347;28;20194;-31
2023/07/17 01:47:36;;;;;;;2.75;1.90;;;;;;;;;;5056731;28;20217;-31
2023/07/17 01:50:07;;;;;;;2.08;1.83;;;;;;;;;;5047918;28;20227;-34
2023/07/17 01:52:46;;;;;;;2.45;1.73;;;;;;;;;;5034471;28;20256;-32
2023/07/17 01:55:25;;;;;;;1.90;1.70;;;;;;;;;;5032817;28;20230;-32
2023/07/17 01:58:06;;;;;;;3.00;1.85;;;;;;;;;;5028771;28;20207;-29
2023/07/17 02:00:51;;;;;;;4.95;2.25;;;;;;;;;;5042754;28;20624;-29
2023/07/17 02:03:22;;;;;;;2.27;2.03;;;;;;;;;;5055349;28;20213;-35
2023/07/17 02:05:59;;;;;;;4.32;2.25;;;;;;;;;;5023388;28;20325;-32
2023/07/17 02:08:34;;;;;;;2.00;1.73;;;;;;;;;;5034091;28;20224;-34
2023/07/17 02:11:19;;;;;;;1.87;1.73;;;;;;;;;;5044458;28;20206;-31
2023/07/17 02:14:02;;;;;;;6.37;2.10;;;;;;;;;;5035146;28;20261;-31
2023/07/17 02:16:47;;;;;;;4.20;2.10;;;;;;;;;;5055207;28;20305;-33
2023/07/17 02:19:24;;;;;;;2.10;1.90;;;;;;;;;;5036252;28;20284;-31
2023/07/17 02:21:58;;;;;;;2.90;1.80;;;;;;;;;;5037496;28;20208;-31
2023/07/17 02:24:34;;;;;;;4.50;2.25;;;;;;;;;;5035617;28;20297;-29
2023/07/17 02:27:08;;;;;;;2.53;1.50;;;;;;;;;;5028642;28;20199;-34
2023/07/17 02:29:38;;;;;;;1.77;1.67;;;;;;;;;;5027391;28;20237;-32
2023/07/17 02:32:06;;;;;;;1.98;1.88;;;;;;;;;;5321449;22;20263;-29
2023/07/17 02:34:33;;;;;;;2.13;1.92;;;;;;;;;;5070230;28;20208;-28
2023/07/17 02:37:00;;;;;;;5.10;2.17;;;;;;;;;;5064574;28;20222;-27
2023/07/17 02:39:27;;;;;;;2.83;2.00;;;;;;;;;;5060456;28;20217;-29
2023/07/17 02:41:55;;;;;;;3.73;1.90;;;;;;;;;;5064169;28;20209;-26
2023/07/17 02:44:23;;;;;;;4.27;2.20;;;;;;;;;;5059711;28;20201;-30
2023/07/17 02:46:51;;;;;;;4.17;2.50;;;;;;;;;;5056836;28;20202;-28
2023/07/17 02:49:18;;;;;;;3.60;2.10;;;;;;;;;;5054195;28;20220;-28
2023/07/17 02:51:45;;;;;;;3.60;2.40;;;;;;;;;;5069629;28;20201;-32
2023/07/17 02:54:12;;;;;;;5.47;1.80;;;;;;;;;;5062154;28;20192;-26
2023/07/17 02:56:39;;;;;;;2.83;2.20;;;;;;;;;;5069136;28;20236;-26
2023/07/17 02:59:06;;;;;;;5.47;2.13;;;;;;;;;;5069691;28;20225;-28
2023/07/17 03:01:35;;;;;;;2.40;2.10;;;;;;;;;;5070692;28;20211;-26
2023/07/17 03:04:02;;;;;;;4.07;1.90;;;;;;;;;;5062900;28;20288;-26
2023/07/17 03:06:30;;;;;;;4.10;2.30;;;;;;;;;;5059334;28;20198;-27
2023/07/17 03:08:57;;;;;;;2.10;1.90;;;;;;;;;;5087114;28;20271;-28
2023/07/17 03:11:24;;;;;;;4.90;2.50;;;;;;;;;;5068340;28;20208;-30
2023/07/17 03:13:51;;;;;;;5.23;2.03;;;;;;;;;;5058937;28;20209;-28
2023/07/17 03:16:18;;;;;;;1.80;1.70;;;;;;;;;;5076122;28;20216;-30
2023/07/17 03:18:47;;;;;;;4.73;1.90;;;;;;;;;;5080980;28;20232;-29
2023/07/17 03:21:14;;;;;;;3.17;2.13;;;;;;;;;;5060546;28;20208;-27
2023/07/17 03:23:41;;;;;;;2.40;1.93;;;;;;;;;;5066474;28;20209;-27
2023/07/17 03:26:08;;;;;;;3.13;2.00;;;;;;;;;;5051607;28;20197;-26
2023/07/17 03:28:35;;;;;;;4.97;2.07;;;;;;;;;;5052280;28;20218;-27
2023/07/17 03:31:02;;;;;;;2.43;1.80;;;;;;;;;;5063795;28;20288;-30
2023/07/17 03:33:29;;;;;;;3.17;1.90;;;;;;;;;;5070388;28;20197;-28
2023/07/17 03:35:58;;;;;;;2.67;1.93;;;;;;;;;;5059025;28;20244;-29
2023/07/17 03:38:25;;;;;;;3.97;2.08;;;;;;;;;;5057419;28;20225;-27
2023/07/17 03:40:52;;;;;;;3.53;2.30;;;;;;;;;;5056130;28;20215;-28
2023/07/17 03:43:19;;;;;;;5.53;1.90;;;;;;;;;;5056565;28;20205;-26
2023/07/17 03:45:46;;;;;;;2.87;2.00;;;;;;;;;;5066380;28;20284;-26
2023/07/17 03:48:14;;;;;;;2.13;1.93;;;;;;;;;;5069198;28;20212;-27
2023/07/17 03:50:41;;;;;;;3.83;2.20;;;;;;;;;;5062115;28;20212;-26
2023/07/17 03:53:09;;;;;;;2.47;2.27;;;;;;;;;;5060908;28;20212;-29
2023/07/17 03:55:37;;;;;;;3.00;2.00;;;;;;;;;;5053606;28;20213;-29
2023/07/17 03:58:04;;;;;;;2.17;1.93;;;;;;;;;;5064493;28;20316;-26
2023/07/17 04:00:31;;;;;;;3.77;2.17;;;;;;;;;;5078614;28;20292;-25
2023/07/17 04:02:58;;;;;;;3.70;2.27;;;;;;;;;;5052774;28;20201;-25
2023/07/17 04:05:26;;;;;;;2.37;1.93;;;;;;;;;;5051544;28;20198;-29
2023/07/17 04:07:53;;;;;;;3.53;2.00;;;;;;;;;;5061598;28;20209;-26
2023/07/17 04:10:23;;;;;;;3.90;2.20;;;;;;;;;;5068575;28;20311;-29
2023/07/17 04:12:50;;;;;;;2.13;2.00;;;;;;;;;;5058771;28;20204;-25
2023/07/17 04:15:17;;;;;;;3.53;2.67;;;;;;;;;;5059400;28;20202;-29
2023/07/17 04:17:44;;;;;;;4.00;2.20;;;;;;;;;;5051675;28;20248;-28
2023/07/17 04:20:12;;;;;;;3.10;2.13;;;;;;;;;;5054660;28;20233;-26
2023/07/17 04:22:39;;;;;;;3.30;2.10;;;;;;;;;;5067534;28;20205;-27
2023/07/17 04:25:07;;;;;;;4.30;1.93;;;;;;;;;;5068991;28;20208;-28
2023/07/17 04:27:35;;;;;;;3.07;2.60;;;;;;;;;;5059503;28;20197;-25
2023/07/17 04:30:02;;;;;;;2.30;2.10;;;;;;;;;;5070756;28;20223;-29
2023/07/17 04:32:29;;;;;;;2.70;2.10;;;;;;;;;;5071449;28;20213;-25
2023/07/17 04:34:57;;;;;;;2.87;2.43;;;;;;;;;;5055913;28;20558;-29
2023/07/17 04:37:24;;;;;;;2.80;2.13;;;;;;;;;;5060544;28;20229;-25
2023/07/17 04:39:52;;;;;;;2.20;2.00;;;;;;;;;;5086181;28;20231;-27
2023/07/17 04:42:19;;;;;;;2.63;2.20;;;;;;;;;;5054959;28;20458;-26
2023/07/17 04:44:47;;;;;;;3.10;2.47;;;;;;;;;;5063304;28;20201;-29
2023/07/17 04:47:14;;;;;;;5.10;2.70;;;;;;;;;;5051364;28;20208;-29
2023/07/17 04:49:41;;;;;;;2.60;2.10;;;;;;;;;;5048462;28;20233;-29
2023/07/17 04:52:08;;;;;;;5.75;2.30;;;;;;;;;;5049322;28;20212;-29
2023/07/17 04:54:36;;;;;;;3.23;2.30;;;;;;;;;;5048824;28;20216;-29
2023/07/17 04:57:03;;;;;;;2.77;2.10;;;;;;;;;;5055275;28;20289;-27
2023/07/17 04:59:30;;;;;;;3.33;2.50;;;;;;;;;;5059784;28;20297;-26
2023/07/17 05:01:59;;;;;;;4.17;2.30;;;;;;;;;;5051288;28;20228;-27
2023/07/17 05:04:26;;;;;;;3.10;2.27;;;;;;;;;;5052722;28;20301;-27
2023/07/17 05:06:53;;;;;;;3.90;2.37;;;;;;;;;;5058811;28;20196;-29
2023/07/17 05:09:20;;;;;;;3.22;2.60;;;;;;;;;;5051302;28;20217;-28
2023/07/17 05:11:47;;;;;;;3.10;2.40;;;;;;;;;;5057844;28;20211;-27
2023/07/17 05:14:15;;;;;;;3.40;2.43;;;;;;;;;;5052445;28;20319;-29
2023/07/17 05:16:42;;;;;;;3.67;2.70;;;;;;;;;;5084039;28;20220;-26
2023/07/17 05:19:10;;;;;;;7.10;2.63;;;;;;;;;;5073804;28;20233;-26
2023/07/17 05:21:37;;;;;;;3.60;2.27;;;;;;;;;;5070438;28;20205;-25
2023/07/17 05:24:04;;;;;;;3.00;2.40;;;;;;;;;;5051840;28;20202;-24
2023/07/17 05:26:32;;;;;;;4.30;2.70;;;;;;;;;;5054424;28;20205;-28
2023/07/17 05:28:59;;;;;;;3.77;2.33;;;;;;;;;;5058933;28;20256;-25
2023/07/17 05:31:26;;;;;;;4.63;2.57;;;;;;;;;;5077562;28;20219;-29
2023/07/17 05:33:55;;;;;;;5.50;2.70;;;;;;;;;;5069450;28;20667;-27
2023/07/17 05:36:24;;;;;;;2.83;2.38;;;;;;;;;;5070570;28;20275;-28
2023/07/17 05:38:51;;;;;;;2.67;2.17;;;;;;;;;;5054604;28;20230;-27
2023/07/17 05:41:18;;;;;;;4.32;2.50;;;;;;;;;;5052049;28;20202;-27
2023/07/17 05:43:45;;;;;;;3.00;2.10;;;;;;;;;;5061453;28;20209;-27
2023/07/17 05:46:12;;;;;;;2.83;2.35;;;;;;;;;;5058812;28;20210;-27
2023/07/17 05:48:39;;;;;;;4.00;2.28;;;;;;;;;;5051537;28;20225;-26
2023/07/17 05:51:08;;;;;;;3.35;2.40;;;;;;;;;;5055731;28;20236;-27
2023/07/17 05:53:37;;;;;;;5.27;2.50;;;;;;;;;;5063485;28;20205;-26
2023/07/17 05:56:04;;;;;;;6.72;2.55;;;;;;;;;;5064655;28;20207;-27
2023/07/17 05:58:31;;;;;;;5.53;2.53;;;;;;;;;;5071338;28;20236;-28
2023/07/17 06:00:58;;;;;;;4.13;2.55;;;;;;;;;;5082083;28;20204;-26
2023/07/17 06:03:25;;;;;;;6.22;2.65;;;;;;;;;;5092384;28;20211;-26
2023/07/17 06:05:53;;;;;;;2.22;2.00;;;;;;;;;;5073765;28;20300;-30
2023/07/17 06:08:20;;;;;;;3.40;2.08;;;;;;;;;;5066701;28;20225;-29
2023/07/17 06:10:48;;;;;;;4.00;2.42;;;;;;;;;;5056901;28;20227;-28
2023/07/17 06:13:16;;;;;;;5.10;2.60;;;;;;;;;;5065829;28;20204;-26
2023/07/17 06:15:43;;;;;;;9.30;6.82;;;;;;;;;;5059269;28;20200;-27
2023/07/17 06:18:10;;;;;;;5.72;3.58;;;;;;;;;;5055081;28;20306;-26
2023/07/17 06:20:38;;;;;;;4.60;2.17;;;;;;;;;;5057682;28;20205;-28
2023/07/17 06:23:05;;;;;;;3.15;2.20;;;;;;;;;;5065963;28;20214;-26
2023/07/17 06:25:34;;;;;;;3.30;2.63;;;;;;;;;;5058718;28;20207;-29
2023/07/17 06:28:04;;;;;;;3.35;2.50;;;;;;;;;;5056397;28;20213;-29
2023/07/17 06:30:31;;;;;;;4.60;2.90;;;;;;;;;;5067894;28;20210;-29
2023/07/17 06:32:58;;;;;;;4.55;2.30;;;;;;;;;;5053971;28;20224;-27
2023/07/17 06:35:26;;;;;;;3.35;2.50;;;;;;;;;;5054036;28;20206;-30
2023/07/17 06:37:53;;;;;;;3.75;2.42;;;;;;;;;;5062587;28;20276;-27
2023/07/17 06:40:20;;;;;;;3.78;2.88;;;;;;;;;;5070938;28;20228;-26
2023/07/17 06:42:47;;;;;;;3.08;2.25;;;;;;;;;;5055691;28;20210;-28
2023/07/17 06:45:16;;;;;;;3.42;2.22;;;;;;;;;;5071425;28;20205;-29
2023/07/17 06:47:43;;;;;;;3.88;2.08;;;;;;;;;;5054665;28;20215;-26
2023/07/17 06:50:10;;;;;;;5.53;2.78;;;;;;;;;;5061906;28;20225;-28
2023/07/17 06:52:38;;;;;;;2.60;2.13;;;;;;;;;;5067316;28;20661;-27
2023/07/17 06:55:06;;;;;;;2.88;2.50;;;;;;;;;;5053820;28;20262;-25
2023/07/17 06:57:33;;;;;;;6.10;2.60;;;;;;;;;;5066487;28;20227;-29
2023/07/17 07:00:00;;;;;;;3.67;2.13;;;;;;;;;;5057664;28;20229;-29
2023/07/17 07:02:28;;;;;;;6.05;2.22;;;;;;;;;;5074771;28;20299;-27
2023/07/17 07:04:56;;;;;;;2.90;2.28;;;;;;;;;;5057563;28;20291;-26
2023/07/17 07:07:23;;;;;;;3.45;2.45;;;;;;;;;;5059519;28;20204;-28
2023/07/17 07:09:50;;;;;;;2.92;2.20;;;;;;;;;;5087465;28;20227;-26
2023/07/17 07:12:17;;;;;;;3.45;1.73;;;;;;;;;;5057851;28;20647;-29
2023/07/17 07:14:47;;;;;;;4.80;2.13;;;;;;;;;;5071686;28;20208;-30
2023/07/17 07:17:14;;;;;;;3.47;2.10;;;;;;;;;;5052892;28;20218;-26
2023/07/17 07:19:42;;;;;;;3.90;2.05;;;;;;;;;;5061191;28;20845;-29
2023/07/17 07:22:09;;;;;;;4.82;2.38;;;;;;;;;;5069969;28;20212;-26
2023/07/17 07:24:38;;;;;;;4.60;2.03;;;;;;;;;;5084691;28;20567;-26
2023/07/17 07:27:05;;;;;;;3.80;1.83;;;;;;;;;;5067638;28;20372;-27
2023/07/17 07:29:33;;;;;;;3.20;1.90;;;;;;;;;;5067301;28;20229;-28
2023/07/17 07:32:00;;;;;;;3.90;2.00;;;;;;;;;;5053509;28;20237;-27
2023/07/17 07:34:28;;;;;;;3.53;2.28;;;;;;;;;;5052259;28;20226;-28
2023/07/17 07:36:56;;;;;;;2.90;2.13;;;;;;;;;;5063448;28;20209;-29
2023/07/17 07:39:23;;;;;;;4.50;2.10;;;;;;;;;;5059828;28;20236;-27
2023/07/17 07:41:50;;;;;;;3.97;2.22;;;;;;;;;;5059960;28;20211;-27
2023/07/17 07:44:17;;;;;;;3.67;2.20;;;;;;;;;;5064923;28;20202;-26
2023/07/17 07:46:44;;;;;;;2.70;2.20;;;;;;;;;;5049870;28;20197;-29
2023/07/17 07:49:12;;;;;;;5.97;2.67;;;;;;;;;;5058161;28;20581;-27
2023/07/17 07:51:39;;;;;;;2.78;2.40;;;;;;;;;;5060765;28;20209;-28
2023/07/17 07:54:07;;;;;;;3.53;2.50;;;;;;;;;;5052474;28;20205;-27
2023/07/17 07:56:34;;;;;;;4.28;2.65;;;;;;;;;;5054413;28;20205;-30
2023/07/17 07:59:01;;;;;;;5.32;2.20;;;;;;;;;;5053766;28;20232;-31
2023/07/17 08:01:28;;;;;;;5.05;2.67;;;;;;;;;;5052372;28;20209;-30
2023/07/17 08:03:56;;;;;;;4.63;2.75;;;;;;;;;;5052578;28;20212;-30
2023/07/17 08:06:23;;;;;;;6.47;3.25;;;;;;;;;;5060960;28;20210;-31
2023/07/17 08:08:50;;;;;;;7.03;2.72;;;;;;;;;;5055172;28;20222;-29
2023/07/17 08:11:21;;;;;;;3.42;2.90;;;;;;;;;;5061911;28;20648;-30
2023/07/17 08:13:48;;;;;;;4.72;2.80;;;;;;;;;;5056972;28;20210;-28
2023/07/17 08:16:15;;;;;;;3.65;2.92;;;;;;;;;;5051832;28;20212;-26
2023/07/17 08:18:42;;;;;;;6.32;3.05;;;;;;;;;;5052728;28;20230;-28
2023/07/17 08:21:09;;;;;;;5.00;2.80;;;;;;;;;;5054995;28;20212;-28
2023/07/17 08:23:37;;;;;;;7.43;3.13;;;;;;;;;;5056147;28;20198;-28
2023/07/17 08:26:04;;;;;;;9.02;3.20;;;;;;;;;;5052078;28;20224;-27
2023/07/17 08:28:33;;;;;;;3.08;2.72;;;;;;;;;;5057648;28;20222;-30
2023/07/17 08:33:51;;;;;;;6.03;3.10;;;;;;;;;;5135265;22;20701;-32
2023/07/17 08:36:24;;;;;;;5.32;3.20;;;;;;;;;;5057953;28;20205;-32
2023/07/17 08:39:01;;;;;;;6.55;2.67;;;;;;;;;;5072879;28;20598;-31
2023/07/17 08:41:49;;;;;;;8.25;3.22;;;;;;;;;;5079269;28;20261;-34
2023/07/17 08:47:20;;;;;;;4.72;2.58;;;;;;;;;;5059306;28;20236;-29
2023/07/17 08:50:00;;;;;;;6.30;3.10;;;;;;;;;;5084021;28;20233;-31
2023/07/17 08:53:00;;;;;;;3.83;2.92;;;;;;;;;;5074464;28;20227;-31
2023/07/17 08:55:37;;;;;;;4.78;3.10;;;;;;;;;;5071311;28;20273;-31
2023/07/17 08:58:11;;;;;;;5.35;2.55;;;;;;;;;;5055621;28;20241;-32
2023/07/17 09:01:02;;;;;;;5.70;3.60;;;;;;;;;;5069241;28;20204;-31
2023/07/17 09:03:44;;;;;;;5.80;3.30;;;;;;;;;;5092219;28;20291;-31
2023/07/17 09:06:26;;;;;;;5.00;2.88;;;;;;;;;;5066016;28;20209;-31
2023/07/17 09:09:09;;;;;;;5.45;3.08;;;;;;;;;;5091200;28;20231;-32
2023/07/17 09:11:50;;;;;;;7.97;3.17;;;;;;;;;;5071634;28;20241;-29
2023/07/17 09:14:33;;;;;;;5.25;2.90;;;;;;;;;;5070042;28;20296;-32
2023/07/17 09:17:13;;;;;;;5.68;3.30;;;;;;;;;;5091052;28;20250;-31
2023/07/17 09:19:51;;;;;;;4.68;3.10;;;;;;;;;;5064754;28;20233;-31
2023/07/17 09:22:34;;;;;;;4.97;3.08;;;;;;;;;;5070369;28;20210;-32
2023/07/17 09:25:20;;;;;;;4.15;2.97;;;;;;;;;;5071491;28;20284;-28
2023/07/17 09:31:22;;;;;;;4.57;2.70;;;;;;;;;;5083050;28;20226;-28
2023/07/17 09:36:51;;;;;;;3.33;2.70;;;;;;;;;;5066446;28;20280;-34
2023/07/17 09:39:39;;;;;;;4.45;3.13;;;;;;;;;;5097201;22;20243;-30
2023/07/17 09:42:24;;;;;;;9.50;3.08;;;;;;;;;;5043328;28;20212;-31
2023/07/17 09:45:06;;;;;;;4.75;3.33;;;;;;;;;;5053047;28;20438;-30
2023/07/17 09:47:50;;;;;;;5.80;3.03;;;;;;;;;;5055933;28;20218;-32
2023/07/17 09:51:05;;;;;;;4.45;2.80;;;;;;;;;;5033328;28;20260;-30
2023/07/17 09:53:46;;;;;;;6.85;3.20;;;;;;;;;;5031938;28;20199;-34
2023/07/17 09:56:15;;;;;;;4.63;2.83;;;;;;;;;;5017610;28;20265;-32
2023/07/17 09:58:58;;;;;;;4.28;2.92;;;;;;;;;;5026756;28;20238;-32
2023/07/17 10:08:17;;;;;;;4.38;2.92;;;;;;;;;;5047416;28;20676;-29
2023/07/17 10:11:20;;;;;;;6.45;3.05;;;;;;;;;;5020377;28;20242;-29
2023/07/17 10:14:04;;;;;;;3.53;3.00;;;;;;;;;;5015038;28;20206;-32
2023/07/17 10:16:37;;;;;;;4.75;3.08;;;;;;;;;;5472279;22;20320;-32
2023/07/17 10:19:24;;;;;;;7.60;3.92;;;;;;;;;;5055086;28;20226;-32
2023/07/17 10:22:06;;;;;;;5.95;3.28;;;;;;;;;;5048164;28;20209;-32
2023/07/17 10:24:50;;;;;;;5.10;2.67;;;;;;;;;;5076702;28;20230;-31
2023/07/17 10:27:44;;;;;;;6.28;3.70;;;;;;;;;;5059081;28;20207;-30
2023/07/17 10:30:37;;;;;;;7.22;3.13;;;;;;;;;;5059972;28;20217;-31
2023/07/17 10:33:28;;;;;;;4.95;2.75;;;;;;;;;;5072696;28;20242;-33
2023/07/17 10:38:58;;;;;;;4.13;3.10;;;;;;;;;;5063815;28;20233;-34
2023/07/17 10:41:41;;;;;;;5.53;3.20;;;;;;;;;;5052211;28;20214;-34
2023/07/17 10:44:51;;;;;;;4.47;3.33;;;;;;;;;;5058895;28;20200;-29
2023/07/17 10:47:32;;;;;;;3.60;2.90;;;;;;;;;;5075249;28;20222;-35
2023/07/17 10:50:14;;;;;;;5.70;3.22;;;;;;;;;;5057545;28;20241;-30
2023/07/17 10:52:48;;;;;;;3.75;2.67;;;;;;;;;;5054364;28;20200;-31
2023/07/17 10:55:26;;;;;;;3.88;2.85;;;;;;;;;;5035369;28;20296;-31
2023/07/17 10:58:16;;;;;;;3.38;3.08;;;;;;;;;;5054600;28;20217;-33
2023/07/17 11:00:59;;;;;;;5.63;3.03;;;;;;;;;;5070506;28;20217;-31
2023/07/17 11:06:48;;;;;;;3.20;2.70;;;;;;;;;;5056335;28;20676;-34
2023/07/17 11:09:29;;;;;;;4.28;2.45;;;;;;;;;;5047602;28;20214;-30
2023/07/17 11:12:10;;;;;;;5.95;2.90;;;;;;;;;;5047777;28;20291;-33
2023/07/17 11:14:54;;;;;;;6.15;3.47;;;;;;;;;;5057151;28;20204;-35
2023/07/17 11:28:07;;;;;;;3.83;3.13;;;;;;;;;;5040780;28;20286;-29
2023/07/17 11:30:35;;;;;;;3.85;2.97;;;;;;;;;;5020461;28;20213;-34
2023/07/17 11:33:19;;;;;;;3.33;2.88;;;;;;;;;;5033643;28;20222;-33
2023/07/17 11:36:00;;;;;;;3.58;3.20;;;;;;;;;;5012053;28;20215;-32
2023/07/17 11:38:37;;;;;;;3.88;3.13;;;;;;;;;;5010928;28;20236;-31
2023/07/17 11:41:19;;;;;;;3.70;2.80;;;;;;;;;;5020224;28;20202;-32
2023/07/17 11:44:04;;;;;;;5.25;3.33;;;;;;;;;;5003165;28;20207;-29
2023/07/17 11:49:27;;;;;;;4.25;3.08;;;;;;;;;;5024934;28;20217;-32
2023/07/17 11:51:59;;;;;;;4.68;2.97;;;;;;;;;;5012590;28;20206;-32
2023/07/17 11:54:36;;;;;;;5.85;3.65;;;;;;;;;;5019970;28;20297;-29
2023/07/17 11:57:09;;;;;;;5.60;3.15;;;;;;;;;;5013879;28;20210;-32
2023/07/17 12:00:01;;;;;;;3.30;3.00;;;;;;;;;;5015967;28;20653;-30
2023/07/17 12:02:52;;;;;;;6.40;3.13;;;;;;;;;;5033087;28;20213;-34
2023/07/17 12:05:42;;;;;;;4.30;2.95;;;;;;;;;;5018616;28;20610;-31
2023/07/17 12:08:19;;;;;;;3.50;3.10;;;;;;;;;;5029553;28;20213;-30
2023/07/17 12:10:57;;;;;;;4.97;3.42;;;;;;;;;;5012001;28;20211;-31
2023/07/17 12:13:35;;;;;;;3.40;3.10;;;;;;;;;;4999245;28;20210;-30
2023/07/17 12:16:33;;;;;;;5.13;3.00;;;;;;;;;;5031138;28;20205;-33
2023/07/17 12:19:20;;;;;;;6.25;3.38;;;;;;;;;;5029830;28;20256;-31
2023/07/17 12:21:53;;;;;;;4.85;3.50;;;;;;;;;;5018994;28;20218;-30
2023/07/17 12:24:34;;;;;;;10.38;3.28;;;;;;;;;;5018808;28;20213;-31
2023/07/17 12:27:17;;;;;;;3.00;2.70;;;;;;;;;;5008523;28;20620;-30
2023/07/17 12:29:56;;;;;;;5.13;2.92;;;;;;;;;;5025999;28;20211;-32
2023/07/17 12:32:27;;;;;;;5.53;2.50;;;;;;;;;;5033945;28;20300;-32
2023/07/17 12:35:06;;;;;;;5.43;3.13;;;;;;;;;;5772616;22;20255;-28
2023/07/17 12:37:43;;;;;;;3.95;3.30;;;;;;;;;;5042949;28;20200;-30
2023/07/17 12:40:28;;;;;;;3.20;2.88;;;;;;;;;;5052364;28;20234;-29
2023/07/17 12:43:04;;;;;;;7.45;3.50;;;;;;;;;;5054179;28;20304;-30
2023/07/17 12:45:34;;;;;;;4.00;2.92;;;;;;;;;;5065195;28;20378;-29
2023/07/17 12:51:00;;;;;;;5.30;3.00;;;;;;;;;;5038211;28;20295;-30
2023/07/17 12:53:41;;;;;;;3.90;3.38;;;;;;;;;;5064985;28;20658;-34
2023/07/17 12:56:23;;;;;;;3.70;3.08;;;;;;;;;;5058210;28;20218;-32
2023/07/17 12:59:05;;;;;;;5.43;2.75;;;;;;;;;;5061267;28;20242;-33
2023/07/17 13:01:41;;;;;;;6.32;3.50;;;;;;;;;;5068133;28;20203;-32
2023/07/17 13:04:35;;;;;;;5.10;3.40;;;;;;;;;;5153145;22;20241;-31
2023/07/17 13:10:48;;;;;;;4.38;3.38;;;;;;;;;;5057084;28;20191;-34
2023/07/17 13:13:25;;;;;;;2.90;2.60;;;;;;;;;;5052207;28;20210;-29
2023/07/17 13:19:05;;;;;;;5.05;3.25;;;;;;;;;;5077436;28;20242;-30
2023/07/17 13:27:46;;;;;;;4.88;3.58;;;;;;;;;;5052480;28;20209;-32
2023/07/17 13:30:35;;;;;;;4.65;2.90;;;;;;;;;;5061458;28;20219;-35
2023/07/17 13:43:14;;;;;;;4.15;3.17;;;;;;;;;;5028256;28;20202;-40
2023/07/17 13:45:56;;;;;;;5.00;3.47;;;;;;;;;;5039195;28;20188;-36
2023/07/17 13:55:03;;;;;;;5.00;3.38;;;;;;;;;;5010609;28;20236;-41
2023/07/17 14:06:45;;;;;;;4.75;3.13;;;;;;;;;;5027770;28;20260;-31
2023/07/17 14:09:54;;;;;;;6.47;3.33;;;;;;;;;;4999520;28;20228;-31
2023/07/17 14:12:31;;;;;;;5.78;3.15;;;;;;;;;;5009609;28;20269;-29
2023/07/17 14:18:25;;;;;;;4.32;2.80;;;;;;;;;;4912007;27;6789701;-35
2023/07/17 14:20:56;;;;;;;4.30;3.25;;;;;;;;;;5120847;28;20207;-37
2023/07/17 14:23:33;;;;;;;4.53;3.35;;;;;;;;;;5131230;28;20201;-37
2023/07/17 14:26:17;;;;;;;7.00;3.15;;;;;;;;;;5131358;28;20229;-35
2023/07/17 14:28:53;;;;;;;7.80;3.88;;;;;;;;;;5140856;22;20221;-38
2023/07/17 14:31:54;;;;;;;4.35;3.22;;;;;;;;;;5068964;28;20642;-39
2023/07/17 14:34:31;;;;;;;4.85;3.45;;;;;;;;;;5069079;28;20200;-36
2023/07/17 14:37:12;;;;;;;3.80;3.08;;;;;;;;;;5068688;28;20311;-42
2023/07/17 14:39:49;;;;;;;4.80;3.30;;;;;;;;;;5083206;28;20249;-36
2023/07/17 14:42:31;;;;;;;4.82;3.33;;;;;;;;;;5075995;28;20593;-38
2023/07/17 14:45:11;;;;;;;4.68;3.60;;;;;;;;;;5087397;28;20202;-36
2023/07/17 14:47:39;;;;;;;5.32;3.53;;;;;;;;;;5334984;22;21104;-28
2023/07/17 14:50:08;;;;;;;4.53;3.10;;;;;;;;;;5086521;28;20254;-28
2023/07/17 14:52:35;;;;;;;6.95;3.40;;;;;;;;;;5096689;28;20372;-29
2023/07/17 14:55:02;;;;;;;5.32;3.25;;;;;;;;;;5085445;28;20208;-29
2023/07/17 14:57:29;;;;;;;6.07;3.22;;;;;;;;;;5086789;28;20249;-28
2023/07/17 14:59:56;;;;;;;5.68;3.38;;;;;;;;;;5093542;28;20212;-27
2023/07/17 15:02:24;;;;;;;5.30;3.00;;;;;;;;;;5086563;28;20298;-30
2023/07/17 15:04:51;;;;;;;6.20;3.88;;;;;;;;;;5083481;28;20198;-30
2023/07/17 15:07:19;;;;;;;5.82;3.60;;;;;;;;;;5084744;28;20192;-28
2023/07/17 15:09:47;;;;;;;5.80;3.40;;;;;;;;;;5093747;28;20210;-27
2023/07/17 15:12:14;;;;;;;8.20;3.47;;;;;;;;;;5079550;28;20211;-26
2023/07/17 15:14:41;;;;;;;6.75;3.42;;;;;;;;;;5093023;28;20606;-29
2023/07/17 15:17:08;;;;;;;4.57;3.13;;;;;;;;;;5077821;28;20231;-28
2023/07/17 15:19:40;;;;;;;5.00;3.20;;;;;;;;;;5077760;28;20215;-29
2023/07/17 15:22:07;;;;;;;5.43;3.17;;;;;;;;;;5089976;28;20203;-28
2023/07/17 15:24:36;;;;;;;7.63;3.50;;;;;;;;;;5082201;28;20203;-25
2023/07/17 15:27:03;;;;;;;4.78;2.95;;;;;;;;;;5081182;28;20202;-30
2023/07/17 15:29:30;;;;;;;5.47;3.95;;;;;;;;;;5078504;28;20222;-27
2023/07/17 15:31:57;;;;;;;6.13;3.35;;;;;;;;;;5089023;28;20202;-27
2023/07/17 15:34:25;;;;;;;7.65;3.20;;;;;;;;;;5069226;28;20228;-27
2023/07/17 15:36:52;;;;;;;7.50;3.25;;;;;;;;;;5079023;28;20231;-30
2023/07/17 15:39:19;;;;;;;4.20;2.85;;;;;;;;;;5071573;28;20215;-29
2023/07/17 15:41:47;;;;;;;7.97;3.10;;;;;;;;;;5067427;28;20199;-28
2023/07/17 15:44:14;;;;;;;5.25;3.25;;;;;;;;;;5073270;28;20250;-27
2023/07/17 15:46:42;;;;;;;4.88;3.30;;;;;;;;;;5070982;28;20282;-28
2023/07/17 15:49:09;;;;;;;4.40;2.92;;;;;;;;;;5071156;28;20240;-31
2023/07/17 15:51:36;;;;;;;7.55;3.00;;;;;;;;;;5069785;28;20208;-29
2023/07/17 15:54:03;;;;;;;6.07;3.25;;;;;;;;;;5081154;28;20202;-26
2023/07/17 15:56:30;;;;;;;5.25;3.00;;;;;;;;;;5070571;28;20246;-26
2023/07/17 15:58:59;;;;;;;5.07;2.92;;;;;;;;;;5081544;28;20512;-29
2023/07/17 16:01:26;;;;;;;5.13;3.08;;;;;;;;;;5071559;28;20254;-28
2023/07/17 16:03:53;;;;;;;5.80;3.33;;;;;;;;;;5071362;28;20373;-28
2023/07/17 16:06:21;;;;;;;6.55;3.33;;;;;;;;;;5071057;28;20210;-28
2023/07/17 16:08:49;;;;;;;4.03;2.88;;;;;;;;;;5074073;28;20256;-29
2023/07/17 16:11:16;;;;;;;6.45;3.42;;;;;;;;;;5076837;28;20203;-26
2023/07/17 16:13:43;;;;;;;7.60;3.33;;;;;;;;;;5078946;28;20739;-26
2023/07/17 16:16:11;;;;;;;6.82;3.30;;;;;;;;;;5090767;28;20212;-27
2023/07/17 16:18:39;;;;;;;6.22;3.13;;;;;;;;;;5068835;28;20228;-30
2023/07/17 16:21:06;;;;;;;4.30;2.97;;;;;;;;;;5089988;28;20190;-27
2023/07/17 16:23:33;;;;;;;4.18;3.10;;;;;;;;;;5091408;28;20206;-28
2023/07/17 16:26:00;;;;;;;5.68;3.28;;;;;;;;;;5080703;28;20222;-26
2023/07/17 16:28:27;;;;;;;5.85;3.30;;;;;;;;;;5070052;28;20239;-29
2023/07/17 16:30:54;;;;;;;4.43;2.80;;;;;;;;;;5064010;28;20196;-28
2023/07/17 16:33:23;;;;;;;5.50;3.45;;;;;;;;;;5063069;28;20202;-29
2023/07/17 16:35:51;;;;;;;4.45;3.17;;;;;;;;;;5059505;28;20230;-26
2023/07/17 16:38:18;;;;;;;6.90;2.97;;;;;;;;;;5072305;28;20234;-29
2023/07/17 16:40:46;;;;;;;4.00;3.10;;;;;;;;;;5061405;28;20205;-30
2023/07/17 16:43:13;;;;;;;4.03;3.40;;;;;;;;;;5061394;28;20205;-29
2023/07/17 16:45:40;;;;;;;8.40;4.22;;;;;;;;;;5074815;28;20234;-27